sensor_id;sensor_type;location;lat;lon;timestamp;P1;durP1;ratioP1;P2;durP2;ratioP2
2866;SDS011;1441;48.886;8.728;2023-11-21T00:01:50;0.70;;;0.60;;
2866;SDS011;1441;48.886;8.728;2023-11-21T00:04:16;0.77;;;0.60;;
2866;SDS011;1441;48.886;8.728;2023-11-21T00:06:42;3.07;;;0.70;;
2866;SDS011;1441;48.886;8.728;2023-11-21T00:09:08;1.70;;;0.40;;
2866;SDS011;1441;48.886;8.728;2023-11-21T00:11:34;0.70;;;0.50;;
2866;SDS011;1441;48.886;8.728;2023-11-21T00:14:00;2.33;;;0.67;;
2866;SDS011;1441;48.886;8.728;2023-11-21T00:16:25;0.63;;;0.40;;
2866;SDS011;1441;48.886;8.728;2023-11-21T00:18:51;1.10;;;0.40;;
2866;SDS011;1441;48.886;8.728;2023-11-21T00:21:16;1.53;;;0.40;;
2866;SDS011;1441;48.886;8.728;2023-11-21T00:23:42;0.70;;;0.50;;
2866;SDS011;1441;48.886;8.728;2023-11-21T00:26:08;1.13;;;0.47;;
2866;SDS011;1441;48.886;8.728;2023-11-21T00:28:33;1.13;;;0.40;;
2866;SDS011;1441;48.886;8.728;2023-11-21T00:30:59;0.53;;;0.53;;
2866;SDS011;1441;48.886;8.728;2023-11-21T00:33:24;0.40;;;0.40;;
2866;SDS011;1441;48.886;8.728;2023-11-21T00:35:50;1.60;;;0.50;;
2866;SDS011;1441;48.886;8.728;2023-11-21T00:38:16;0.80;;;0.50;;
2866;SDS011;1441;48.886;8.728;2023-11-21T00:40:44;2.47;;;0.83;;
2866;SDS011;1441;48.886;8.728;2023-11-21T00:43:10;0.77;;;0.40;;
2866;SDS011;1441;48.886;8.728;2023-11-21T00:45:36;2.50;;;0.40;;
2866;SDS011;1441;48.886;8.728;2023-11-21T00:48:01;0.93;;;0.40;;
2866;SDS011;1441;48.886;8.728;2023-11-21T00:50:29;0.40;;;0.40;;
2866;SDS011;1441;48.886;8.728;2023-11-21T00:52:55;2.10;;;0.40;;
2866;SDS011;1441;48.886;8.728;2023-11-21T00:55:21;0.40;;;0.40;;
2866;SDS011;1441;48.886;8.728;2023-11-21T00:57:47;0.50;;;0.40;;
2866;SDS011;1441;48.886;8.728;2023-11-21T01:00:13;4.67;;;0.40;;
2866;SDS011;1441;48.886;8.728;2023-11-21T01:02:42;0.80;;;0.40;;
2866;SDS011;1441;48.886;8.728;2023-11-21T01:05:09;2.30;;;0.40;;
2866;SDS011;1441;48.886;8.728;2023-11-21T01:07:36;0.30;;;0.30;;
2866;SDS011;1441;48.886;8.728;2023-11-21T01:10:02;0.47;;;0.40;;
2866;SDS011;1441;48.886;8.728;2023-11-21T01:12:30;1.90;;;0.40;;
2866;SDS011;1441;48.886;8.728;2023-11-21T01:14:56;2.90;;;0.50;;
2866;SDS011;1441;48.886;8.728;2023-11-21T01:17:25;0.93;;;0.50;;
2866;SDS011;1441;48.886;8.728;2023-11-21T01:19:50;1.63;;;0.50;;
2866;SDS011;1441;48.886;8.728;2023-11-21T01:22:16;1.70;;;0.40;;
2866;SDS011;1441;48.886;8.728;2023-11-21T01:24:42;1.90;;;0.50;;
2866;SDS011;1441;48.886;8.728;2023-11-21T01:27:08;1.60;;;0.40;;
2866;SDS011;1441;48.886;8.728;2023-11-21T01:29:33;0.30;;;0.30;;
2866;SDS011;1441;48.886;8.728;2023-11-21T01:32:00;1.53;;;0.40;;
2866;SDS011;1441;48.886;8.728;2023-11-21T01:34:27;0.40;;;0.40;;
2866;SDS011;1441;48.886;8.728;2023-11-21T01:36:53;2.03;;;0.50;;
2866;SDS011;1441;48.886;8.728;2023-11-21T01:39:18;0.40;;;0.40;;
2866;SDS011;1441;48.886;8.728;2023-11-21T01:41:48;0.50;;;0.37;;
2866;SDS011;1441;48.886;8.728;2023-11-21T01:44:17;0.60;;;0.50;;
2866;SDS011;1441;48.886;8.728;2023-11-21T01:46:50;0.60;;;0.40;;
2866;SDS011;1441;48.886;8.728;2023-11-21T01:49:17;0.77;;;0.40;;
2866;SDS011;1441;48.886;8.728;2023-11-21T01:51:43;0.30;;;0.30;;
2866;SDS011;1441;48.886;8.728;2023-11-21T01:54:14;0.60;;;0.60;;
2866;SDS011;1441;48.886;8.728;2023-11-21T01:56:42;0.70;;;0.33;;
2866;SDS011;1441;48.886;8.728;2023-11-21T01:59:09;1.70;;;0.40;;
2866;SDS011;1441;48.886;8.728;2023-11-21T02:01:36;2.27;;;0.50;;
2866;SDS011;1441;48.886;8.728;2023-11-21T02:04:02;0.40;;;0.40;;
2866;SDS011;1441;48.886;8.728;2023-11-21T02:06:28;3.03;;;0.40;;
2866;SDS011;1441;48.886;8.728;2023-11-21T02:08:56;0.73;;;0.43;;
2866;SDS011;1441;48.886;8.728;2023-11-21T02:11:24;0.83;;;0.40;;
2866;SDS011;1441;48.886;8.728;2023-11-21T02:13:52;0.40;;;0.40;;
2866;SDS011;1441;48.886;8.728;2023-11-21T02:16:19;3.70;;;0.40;;
2866;SDS011;1441;48.886;8.728;2023-11-21T02:18:45;4.30;;;0.30;;
2866;SDS011;1441;48.886;8.728;2023-11-21T02:21:13;0.30;;;0.30;;
2866;SDS011;1441;48.886;8.728;2023-11-21T02:23:39;1.60;;;0.40;;
2866;SDS011;1441;48.886;8.728;2023-11-21T02:26:09;0.30;;;0.30;;
2866;SDS011;1441;48.886;8.728;2023-11-21T02:28:35;0.30;;;0.30;;
2866;SDS011;1441;48.886;8.728;2023-11-21T02:31:01;0.40;;;0.30;;
2866;SDS011;1441;48.886;8.728;2023-11-21T02:33:28;0.77;;;0.37;;
2866;SDS011;1441;48.886;8.728;2023-11-21T02:35:53;0.63;;;0.40;;
2866;SDS011;1441;48.886;8.728;2023-11-21T02:38:20;0.80;;;0.30;;
2866;SDS011;1441;48.886;8.728;2023-11-21T02:40:46;0.40;;;0.40;;
2866;SDS011;1441;48.886;8.728;2023-11-21T02:43:11;2.40;;;0.50;;
2866;SDS011;1441;48.886;8.728;2023-11-21T02:45:37;0.80;;;0.40;;
2866;SDS011;1441;48.886;8.728;2023-11-21T02:48:03;0.60;;;0.40;;
2866;SDS011;1441;48.886;8.728;2023-11-21T02:50:29;0.97;;;0.60;;
2866;SDS011;1441;48.886;8.728;2023-11-21T02:52:55;0.50;;;0.47;;
2866;SDS011;1441;48.886;8.728;2023-11-21T02:55:22;0.50;;;0.50;;
2866;SDS011;1441;48.886;8.728;2023-11-21T02:57:49;1.17;;;0.40;;
2866;SDS011;1441;48.886;8.728;2023-11-21T03:00:15;0.30;;;0.30;;
2866;SDS011;1441;48.886;8.728;2023-11-21T03:02:42;0.30;;;0.30;;
2866;SDS011;1441;48.886;8.728;2023-11-21T03:05:08;0.50;;;0.30;;
2866;SDS011;1441;48.886;8.728;2023-11-21T03:07:35;2.40;;;0.30;;
2866;SDS011;1441;48.886;8.728;2023-11-21T03:10:02;2.93;;;0.50;;
2866;SDS011;1441;48.886;8.728;2023-11-21T03:12:29;0.53;;;0.40;;
2866;SDS011;1441;48.886;8.728;2023-11-21T03:14:54;0.30;;;0.30;;
2866;SDS011;1441;48.886;8.728;2023-11-21T03:17:20;1.27;;;0.40;;
2866;SDS011;1441;48.886;8.728;2023-11-21T03:19:46;0.40;;;0.37;;
2866;SDS011;1441;48.886;8.728;2023-11-21T03:22:11;0.50;;;0.40;;
2866;SDS011;1441;48.886;8.728;2023-11-21T03:24:37;0.40;;;0.40;;
2866;SDS011;1441;48.886;8.728;2023-11-21T03:27:03;0.60;;;0.40;;
2866;SDS011;1441;48.886;8.728;2023-11-21T03:29:29;0.83;;;0.40;;
2866;SDS011;1441;48.886;8.728;2023-11-21T03:31:54;1.37;;;0.30;;
2866;SDS011;1441;48.886;8.728;2023-11-21T03:34:27;0.30;;;0.30;;
2866;SDS011;1441;48.886;8.728;2023-11-21T03:36:53;0.67;;;0.40;;
2866;SDS011;1441;48.886;8.728;2023-11-21T03:39:19;0.83;;;0.40;;
2866;SDS011;1441;48.886;8.728;2023-11-21T03:41:47;0.40;;;0.40;;
2866;SDS011;1441;48.886;8.728;2023-11-21T03:44:13;0.97;;;0.40;;
2866;SDS011;1441;48.886;8.728;2023-11-21T03:46:39;0.70;;;0.40;;
2866;SDS011;1441;48.886;8.728;2023-11-21T03:49:04;0.70;;;0.50;;
2866;SDS011;1441;48.886;8.728;2023-11-21T03:51:30;1.03;;;0.60;;
2866;SDS011;1441;48.886;8.728;2023-11-21T03:53:55;1.03;;;0.70;;
2866;SDS011;1441;48.886;8.728;2023-11-21T03:56:21;1.07;;;0.70;;
2866;SDS011;1441;48.886;8.728;2023-11-21T03:58:49;0.90;;;0.60;;
2866;SDS011;1441;48.886;8.728;2023-11-21T04:01:24;0.53;;;0.40;;
2866;SDS011;1441;48.886;8.728;2023-11-21T04:03:50;0.97;;;0.50;;
2866;SDS011;1441;48.886;8.728;2023-11-21T04:06:16;2.87;;;0.30;;
2866;SDS011;1441;48.886;8.728;2023-11-21T04:08:45;2.80;;;0.40;;
2866;SDS011;1441;48.886;8.728;2023-11-21T04:11:11;1.40;;;0.50;;
2866;SDS011;1441;48.886;8.728;2023-11-21T04:13:38;1.70;;;0.60;;
2866;SDS011;1441;48.886;8.728;2023-11-21T04:16:05;2.27;;;0.83;;
2866;SDS011;1441;48.886;8.728;2023-11-21T04:18:31;0.83;;;0.40;;
2866;SDS011;1441;48.886;8.728;2023-11-21T04:20:57;0.60;;;0.40;;
2866;SDS011;1441;48.886;8.728;2023-11-21T04:23:22;1.10;;;0.50;;
2866;SDS011;1441;48.886;8.728;2023-11-21T04:25:48;0.40;;;0.40;;
2866;SDS011;1441;48.886;8.728;2023-11-21T04:28:13;2.00;;;0.50;;
2866;SDS011;1441;48.886;8.728;2023-11-21T04:30:39;2.10;;;0.53;;
2866;SDS011;1441;48.886;8.728;2023-11-21T04:33:05;2.60;;;0.60;;
2866;SDS011;1441;48.886;8.728;2023-11-21T04:35:32;2.10;;;0.60;;
2866;SDS011;1441;48.886;8.728;2023-11-21T04:37:58;1.53;;;0.50;;
2866;SDS011;1441;48.886;8.728;2023-11-21T04:40:23;0.80;;;0.60;;
2866;SDS011;1441;48.886;8.728;2023-11-21T04:42:49;0.80;;;0.80;;
2866;SDS011;1441;48.886;8.728;2023-11-21T04:45:14;1.10;;;0.53;;
2866;SDS011;1441;48.886;8.728;2023-11-21T04:47:40;0.80;;;0.50;;
2866;SDS011;1441;48.886;8.728;2023-11-21T04:50:06;0.60;;;0.60;;
2866;SDS011;1441;48.886;8.728;2023-11-21T04:52:32;2.00;;;0.60;;
2866;SDS011;1441;48.886;8.728;2023-11-21T04:54:58;0.50;;;0.50;;
2866;SDS011;1441;48.886;8.728;2023-11-21T04:57:25;2.83;;;0.60;;
2866;SDS011;1441;48.886;8.728;2023-11-21T04:59:53;1.03;;;0.70;;
2866;SDS011;1441;48.886;8.728;2023-11-21T05:02:19;1.80;;;0.50;;
2866;SDS011;1441;48.886;8.728;2023-11-21T05:04:46;0.40;;;0.40;;
2866;SDS011;1441;48.886;8.728;2023-11-21T05:07:12;1.47;;;0.60;;
2866;SDS011;1441;48.886;8.728;2023-11-21T05:09:41;1.00;;;0.70;;
2866;SDS011;1441;48.886;8.728;2023-11-21T05:12:09;1.00;;;0.50;;
2866;SDS011;1441;48.886;8.728;2023-11-21T05:14:34;2.43;;;0.50;;
2866;SDS011;1441;48.886;8.728;2023-11-21T05:17:00;1.17;;;0.67;;
2866;SDS011;1441;48.886;8.728;2023-11-21T05:19:27;1.13;;;0.60;;
2866;SDS011;1441;48.886;8.728;2023-11-21T05:21:53;2.53;;;0.60;;
2866;SDS011;1441;48.886;8.728;2023-11-21T05:24:19;0.50;;;0.50;;
2866;SDS011;1441;48.886;8.728;2023-11-21T05:26:44;0.90;;;0.67;;
2866;SDS011;1441;48.886;8.728;2023-11-21T05:29:10;1.40;;;1.00;;
2866;SDS011;1441;48.886;8.728;2023-11-21T05:31:36;5.73;;;2.43;;
2866;SDS011;1441;48.886;8.728;2023-11-21T05:34:02;3.20;;;2.03;;
2866;SDS011;1441;48.886;8.728;2023-11-21T05:36:30;2.23;;;1.90;;
2866;SDS011;1441;48.886;8.728;2023-11-21T05:38:55;1.43;;;1.30;;
2866;SDS011;1441;48.886;8.728;2023-11-21T05:41:21;1.67;;;1.50;;
2866;SDS011;1441;48.886;8.728;2023-11-21T05:43:47;4.27;;;1.40;;
2866;SDS011;1441;48.886;8.728;2023-11-21T05:46:12;4.40;;;1.30;;
2866;SDS011;1441;48.886;8.728;2023-11-21T05:48:38;2.43;;;1.47;;
2866;SDS011;1441;48.886;8.728;2023-11-21T05:51:07;1.90;;;1.67;;
2866;SDS011;1441;48.886;8.728;2023-11-21T05:53:33;3.80;;;3.13;;
2866;SDS011;1441;48.886;8.728;2023-11-21T05:55:59;3.00;;;2.30;;
2866;SDS011;1441;48.886;8.728;2023-11-21T05:58:25;2.57;;;2.37;;
2866;SDS011;1441;48.886;8.728;2023-11-21T06:00:50;2.67;;;2.33;;
2866;SDS011;1441;48.886;8.728;2023-11-21T06:03:16;6.87;;;3.50;;
2866;SDS011;1441;48.886;8.728;2023-11-21T06:05:42;4.97;;;3.20;;
2866;SDS011;1441;48.886;8.728;2023-11-21T06:08:08;3.50;;;2.50;;
2866;SDS011;1441;48.886;8.728;2023-11-21T06:10:34;3.37;;;1.87;;
2866;SDS011;1441;48.886;8.728;2023-11-21T06:12:59;2.80;;;1.90;;
2866;SDS011;1441;48.886;8.728;2023-11-21T06:15:25;2.60;;;1.70;;
2866;SDS011;1441;48.886;8.728;2023-11-21T06:17:51;4.37;;;1.87;;
2866;SDS011;1441;48.886;8.728;2023-11-21T06:20:19;4.40;;;2.90;;
2866;SDS011;1441;48.886;8.728;2023-11-21T06:22:46;4.23;;;3.93;;
2866;SDS011;1441;48.886;8.728;2023-11-21T06:25:12;2.30;;;2.20;;
2866;SDS011;1441;48.886;8.728;2023-11-21T06:27:43;4.00;;;3.60;;
2866;SDS011;1441;48.886;8.728;2023-11-21T06:30:10;3.17;;;2.53;;
2866;SDS011;1441;48.886;8.728;2023-11-21T06:32:37;2.47;;;2.27;;
2866;SDS011;1441;48.886;8.728;2023-11-21T06:35:04;2.70;;;1.73;;
2866;SDS011;1441;48.886;8.728;2023-11-21T06:37:31;2.70;;;1.30;;
2866;SDS011;1441;48.886;8.728;2023-11-21T06:39:57;3.67;;;1.40;;
2866;SDS011;1441;48.886;8.728;2023-11-21T06:42:23;1.30;;;1.20;;
2866;SDS011;1441;48.886;8.728;2023-11-21T06:44:49;1.50;;;1.40;;
2866;SDS011;1441;48.886;8.728;2023-11-21T06:47:18;2.77;;;1.10;;
2866;SDS011;1441;48.886;8.728;2023-11-21T06:49:50;1.23;;;1.23;;
2866;SDS011;1441;48.886;8.728;2023-11-21T06:52:16;2.40;;;1.30;;
2866;SDS011;1441;48.886;8.728;2023-11-21T06:54:41;4.30;;;1.53;;
2866;SDS011;1441;48.886;8.728;2023-11-21T06:57:07;0.80;;;0.80;;
2866;SDS011;1441;48.886;8.728;2023-11-21T06:59:33;1.07;;;0.80;;
2866;SDS011;1441;48.886;8.728;2023-11-21T07:01:59;1.13;;;1.13;;
2866;SDS011;1441;48.886;8.728;2023-11-21T07:04:24;8.90;;;0.90;;
2866;SDS011;1441;48.886;8.728;2023-11-21T07:06:53;1.33;;;1.10;;
2866;SDS011;1441;48.886;8.728;2023-11-21T07:09:19;1.00;;;1.00;;
2866;SDS011;1441;48.886;8.728;2023-11-21T07:11:47;1.17;;;1.07;;
2866;SDS011;1441;48.886;8.728;2023-11-21T07:14:13;1.90;;;1.30;;
2866;SDS011;1441;48.886;8.728;2023-11-21T07:16:39;2.20;;;1.27;;
2866;SDS011;1441;48.886;8.728;2023-11-21T07:19:04;1.27;;;1.00;;
2866;SDS011;1441;48.886;8.728;2023-11-21T07:21:33;1.73;;;1.10;;
2866;SDS011;1441;48.886;8.728;2023-11-21T07:24:04;3.03;;;1.43;;
2866;SDS011;1441;48.886;8.728;2023-11-21T07:26:34;0.80;;;0.80;;
2866;SDS011;1441;48.886;8.728;2023-11-21T07:29:04;1.10;;;1.10;;
2866;SDS011;1441;48.886;8.728;2023-11-21T07:31:31;1.60;;;0.90;;
2866;SDS011;1441;48.886;8.728;2023-11-21T07:33:59;1.00;;;1.00;;
2866;SDS011;1441;48.886;8.728;2023-11-21T07:36:25;0.67;;;0.67;;
2866;SDS011;1441;48.886;8.728;2023-11-21T07:38:50;2.77;;;1.13;;
2866;SDS011;1441;48.886;8.728;2023-11-21T07:41:17;1.50;;;1.00;;
2866;SDS011;1441;48.886;8.728;2023-11-21T07:43:44;3.23;;;0.77;;
2866;SDS011;1441;48.886;8.728;2023-11-21T07:46:10;1.00;;;1.00;;
2866;SDS011;1441;48.886;8.728;2023-11-21T07:48:37;1.70;;;0.70;;
2866;SDS011;1441;48.886;8.728;2023-11-21T07:51:03;0.80;;;0.80;;
2866;SDS011;1441;48.886;8.728;2023-11-21T07:53:29;1.57;;;1.00;;
2866;SDS011;1441;48.886;8.728;2023-11-21T07:55:55;2.50;;;1.03;;
2866;SDS011;1441;48.886;8.728;2023-11-21T07:58:21;2.47;;;1.20;;
2866;SDS011;1441;48.886;8.728;2023-11-21T08:00:47;1.70;;;0.90;;
2866;SDS011;1441;48.886;8.728;2023-11-21T08:03:13;0.93;;;0.90;;
2866;SDS011;1441;48.886;8.728;2023-11-21T08:05:39;1.30;;;1.30;;
2866;SDS011;1441;48.886;8.728;2023-11-21T08:08:04;1.80;;;1.10;;
2866;SDS011;1441;48.886;8.728;2023-11-21T08:10:30;4.87;;;0.97;;
2866;SDS011;1441;48.886;8.728;2023-11-21T08:12:55;2.70;;;1.00;;
2866;SDS011;1441;48.886;8.728;2023-11-21T08:15:23;1.33;;;1.33;;
2866;SDS011;1441;48.886;8.728;2023-11-21T08:17:48;1.37;;;1.27;;
2866;SDS011;1441;48.886;8.728;2023-11-21T08:20:14;1.57;;;1.50;;
2866;SDS011;1441;48.886;8.728;2023-11-21T08:22:46;2.00;;;1.40;;
2866;SDS011;1441;48.886;8.728;2023-11-21T08:25:12;1.63;;;1.53;;
2866;SDS011;1441;48.886;8.728;2023-11-21T08:27:38;4.37;;;1.70;;
2866;SDS011;1441;48.886;8.728;2023-11-21T08:30:04;1.80;;;1.70;;
2866;SDS011;1441;48.886;8.728;2023-11-21T08:32:30;1.60;;;1.50;;
2866;SDS011;1441;48.886;8.728;2023-11-21T08:34:57;1.93;;;1.23;;
2866;SDS011;1441;48.886;8.728;2023-11-21T08:37:23;1.27;;;1.17;;
2866;SDS011;1441;48.886;8.728;2023-11-21T08:39:48;1.57;;;1.13;;
2866;SDS011;1441;48.886;8.728;2023-11-21T08:42:14;0.87;;;0.87;;
2866;SDS011;1441;48.886;8.728;2023-11-21T08:44:40;1.03;;;0.90;;
2866;SDS011;1441;48.886;8.728;2023-11-21T08:47:06;0.80;;;0.80;;
2866;SDS011;1441;48.886;8.728;2023-11-21T08:49:32;0.70;;;0.70;;
2866;SDS011;1441;48.886;8.728;2023-11-21T08:51:57;0.70;;;0.70;;
2866;SDS011;1441;48.886;8.728;2023-11-21T08:54:26;2.10;;;0.80;;
2866;SDS011;1441;48.886;8.728;2023-11-21T08:56:52;0.57;;;0.57;;
2866;SDS011;1441;48.886;8.728;2023-11-21T08:59:19;0.70;;;0.70;;
2866;SDS011;1441;48.886;8.728;2023-11-21T09:01:45;0.60;;;0.60;;
2866;SDS011;1441;48.886;8.728;2023-11-21T09:04:11;0.60;;;0.60;;
2866;SDS011;1441;48.886;8.728;2023-11-21T09:06:37;3.23;;;0.60;;
2866;SDS011;1441;48.886;8.728;2023-11-21T09:09:03;0.50;;;0.50;;
2866;SDS011;1441;48.886;8.728;2023-11-21T09:11:30;0.40;;;0.40;;
2866;SDS011;1441;48.886;8.728;2023-11-21T09:14:02;0.50;;;0.50;;
2866;SDS011;1441;48.886;8.728;2023-11-21T09:16:28;0.50;;;0.50;;
2866;SDS011;1441;48.886;8.728;2023-11-21T09:18:54;0.50;;;0.50;;
2866;SDS011;1441;48.886;8.728;2023-11-21T09:21:19;0.73;;;0.67;;
2866;SDS011;1441;48.886;8.728;2023-11-21T09:23:45;0.43;;;0.43;;
2866;SDS011;1441;48.886;8.728;2023-11-21T09:26:11;0.63;;;0.63;;
2866;SDS011;1441;48.886;8.728;2023-11-21T09:28:37;4.50;;;0.60;;
2866;SDS011;1441;48.886;8.728;2023-11-21T09:31:03;1.60;;;0.70;;
2866;SDS011;1441;48.886;8.728;2023-11-21T09:33:29;0.87;;;0.70;;
2866;SDS011;1441;48.886;8.728;2023-11-21T09:35:56;0.60;;;0.60;;
2866;SDS011;1441;48.886;8.728;2023-11-21T09:38:22;0.60;;;0.60;;
2866;SDS011;1441;48.886;8.728;2023-11-21T09:40:48;1.10;;;1.00;;
2866;SDS011;1441;48.886;8.728;2023-11-21T09:43:16;0.40;;;0.40;;
2866;SDS011;1441;48.886;8.728;2023-11-21T09:45:46;0.93;;;0.53;;
2866;SDS011;1441;48.886;8.728;2023-11-21T09:48:13;0.70;;;0.70;;
2866;SDS011;1441;48.886;8.728;2023-11-21T09:50:41;1.00;;;0.90;;
2866;SDS011;1441;48.886;8.728;2023-11-21T09:53:12;0.60;;;0.60;;
2866;SDS011;1441;48.886;8.728;2023-11-21T09:55:41;1.07;;;0.60;;
2866;SDS011;1441;48.886;8.728;2023-11-21T09:58:08;0.60;;;0.60;;
2866;SDS011;1441;48.886;8.728;2023-11-21T10:00:37;1.90;;;0.57;;
2866;SDS011;1441;48.886;8.728;2023-11-21T10:03:05;0.87;;;0.60;;
2866;SDS011;1441;48.886;8.728;2023-11-21T10:05:30;0.70;;;0.70;;
2866;SDS011;1441;48.886;8.728;2023-11-21T10:07:59;1.43;;;1.30;;
2866;SDS011;1441;48.886;8.728;2023-11-21T10:10:25;1.00;;;1.00;;
2866;SDS011;1441;48.886;8.728;2023-11-21T10:12:54;1.73;;;1.63;;
2866;SDS011;1441;48.886;8.728;2023-11-21T10:15:22;3.87;;;1.80;;
2866;SDS011;1441;48.886;8.728;2023-11-21T10:17:52;2.80;;;2.60;;
2866;SDS011;1441;48.886;8.728;2023-11-21T10:20:19;3.00;;;2.80;;
2866;SDS011;1441;48.886;8.728;2023-11-21T10:22:49;3.17;;;2.97;;
2866;SDS011;1441;48.886;8.728;2023-11-21T10:25:15;4.23;;;3.77;;
2866;SDS011;1441;48.886;8.728;2023-11-21T10:27:41;4.07;;;3.73;;
2866;SDS011;1441;48.886;8.728;2023-11-21T10:30:08;5.00;;;4.37;;
2866;SDS011;1441;48.886;8.728;2023-11-21T10:32:41;6.30;;;4.97;;
2866;SDS011;1441;48.886;8.728;2023-11-21T10:35:08;5.70;;;5.20;;
2866;SDS011;1441;48.886;8.728;2023-11-21T10:37:37;5.93;;;5.33;;
2866;SDS011;1441;48.886;8.728;2023-11-21T10:40:09;6.00;;;5.10;;
2866;SDS011;1441;48.886;8.728;2023-11-21T10:42:38;5.73;;;5.23;;
2866;SDS011;1441;48.886;8.728;2023-11-21T10:45:05;7.00;;;6.23;;
2866;SDS011;1441;48.886;8.728;2023-11-21T10:47:39;8.00;;;6.30;;
2866;SDS011;1441;48.886;8.728;2023-11-21T10:50:09;6.30;;;5.70;;
2866;SDS011;1441;48.886;8.728;2023-11-21T10:52:45;8.13;;;5.30;;
2866;SDS011;1441;48.886;8.728;2023-11-21T10:55:18;7.20;;;5.97;;
2866;SDS011;1441;48.886;8.728;2023-11-21T10:57:49;6.00;;;4.47;;
2866;SDS011;1441;48.886;8.728;2023-11-21T11:00:17;6.00;;;5.23;;
2866;SDS011;1441;48.886;8.728;2023-11-21T11:02:46;6.57;;;5.50;;
2866;SDS011;1441;48.886;8.728;2023-11-21T11:05:15;10.03;;;5.97;;
2866;SDS011;1441;48.886;8.728;2023-11-21T11:07:44;6.47;;;5.87;;
2866;SDS011;1441;48.886;8.728;2023-11-21T11:10:13;6.23;;;5.60;;
2866;SDS011;1441;48.886;8.728;2023-11-21T11:12:39;7.07;;;6.37;;
2866;SDS011;1441;48.886;8.728;2023-11-21T11:15:07;8.07;;;6.57;;
2866;SDS011;1441;48.886;8.728;2023-11-21T11:17:34;7.47;;;6.70;;
2866;SDS011;1441;48.886;8.728;2023-11-21T11:20:05;8.30;;;6.90;;
2866;SDS011;1441;48.886;8.728;2023-11-21T11:22:41;8.80;;;7.77;;
2866;SDS011;1441;48.886;8.728;2023-11-21T11:30:41;6.80;;;6.03;;
2866;SDS011;1441;48.886;8.728;2023-11-21T11:33:34;8.23;;;6.73;;
2866;SDS011;1441;48.886;8.728;2023-11-21T11:36:10;12.00;;;8.17;;
2866;SDS011;1441;48.886;8.728;2023-11-21T11:38:56;9.83;;;7.50;;
2866;SDS011;1441;48.886;8.728;2023-11-21T11:41:30;11.33;;;7.40;;
2866;SDS011;1441;48.886;8.728;2023-11-21T11:44:01;10.07;;;6.30;;
2866;SDS011;1441;48.886;8.728;2023-11-21T11:46:43;6.93;;;6.23;;
2866;SDS011;1441;48.886;8.728;2023-11-21T11:49:29;8.40;;;5.83;;
2866;SDS011;1441;48.886;8.728;2023-11-21T11:55:01;5.63;;;5.00;;
2866;SDS011;1441;48.886;8.728;2023-11-21T11:57:30;5.63;;;5.10;;
2866;SDS011;1441;48.886;8.728;2023-11-21T12:02:44;7.10;;;6.37;;
2866;SDS011;1441;48.886;8.728;2023-11-21T12:05:14;8.10;;;7.13;;
2866;SDS011;1441;48.886;8.728;2023-11-21T12:07:42;9.10;;;7.60;;
2866;SDS011;1441;48.886;8.728;2023-11-21T12:10:19;9.17;;;7.40;;
2866;SDS011;1441;48.886;8.728;2023-11-21T12:12:48;20.57;;;8.23;;
2866;SDS011;1441;48.886;8.728;2023-11-21T12:15:15;11.47;;;9.07;;
2866;SDS011;1441;48.886;8.728;2023-11-21T12:17:41;10.60;;;8.93;;
2866;SDS011;1441;48.886;8.728;2023-11-21T12:20:14;9.93;;;8.13;;
2866;SDS011;1441;48.886;8.728;2023-11-21T12:22:47;10.90;;;8.70;;
2866;SDS011;1441;48.886;8.728;2023-11-21T12:25:14;9.30;;;8.00;;
2866;SDS011;1441;48.886;8.728;2023-11-21T12:27:44;12.70;;;9.20;;
2866;SDS011;1441;48.886;8.728;2023-11-21T12:30:14;12.17;;;9.20;;
2866;SDS011;1441;48.886;8.728;2023-11-21T12:32:41;16.63;;;10.13;;
2866;SDS011;1441;48.886;8.728;2023-11-21T12:35:08;10.53;;;8.87;;
2866;SDS011;1441;48.886;8.728;2023-11-21T12:37:36;10.53;;;8.93;;
2866;SDS011;1441;48.886;8.728;2023-11-21T12:40:03;11.73;;;9.10;;
2866;SDS011;1441;48.886;8.728;2023-11-21T12:42:30;11.30;;;9.37;;
2866;SDS011;1441;48.886;8.728;2023-11-21T12:47:41;10.27;;;7.87;;
2866;SDS011;1441;48.886;8.728;2023-11-21T12:50:21;10.50;;;9.00;;
2866;SDS011;1441;48.886;8.728;2023-11-21T12:52:54;10.53;;;8.80;;
2866;SDS011;1441;48.886;8.728;2023-11-21T12:55:23;10.73;;;8.27;;
2866;SDS011;1441;48.886;8.728;2023-11-21T12:57:51;8.53;;;6.93;;
2866;SDS011;1441;48.886;8.728;2023-11-21T13:00:29;4.77;;;4.37;;
2866;SDS011;1441;48.886;8.728;2023-11-21T13:02:58;3.10;;;2.87;;
2866;SDS011;1441;48.886;8.728;2023-11-21T13:05:27;2.90;;;2.70;;
2866;SDS011;1441;48.886;8.728;2023-11-21T13:07:59;5.10;;;2.93;;
2866;SDS011;1441;48.886;8.728;2023-11-21T13:10:28;1.97;;;1.70;;
2866;SDS011;1441;48.886;8.728;2023-11-21T13:12:59;1.63;;;1.53;;
2866;SDS011;1441;48.886;8.728;2023-11-21T13:15:26;1.50;;;1.40;;
2866;SDS011;1441;48.886;8.728;2023-11-21T13:17:53;1.50;;;1.40;;
2866;SDS011;1441;48.886;8.728;2023-11-21T13:20:20;1.40;;;1.40;;
2866;SDS011;1441;48.886;8.728;2023-11-21T13:22:52;3.33;;;1.73;;
2866;SDS011;1441;48.886;8.728;2023-11-21T13:25:22;1.33;;;1.20;;
2866;SDS011;1441;48.886;8.728;2023-11-21T13:27:56;1.17;;;1.10;;
2866;SDS011;1441;48.886;8.728;2023-11-21T13:30:23;1.57;;;1.47;;
2866;SDS011;1441;48.886;8.728;2023-11-21T13:32:52;0.97;;;0.87;;
2866;SDS011;1441;48.886;8.728;2023-11-21T13:35:18;0.70;;;0.70;;
2866;SDS011;1441;48.886;8.728;2023-11-21T13:37:55;0.70;;;0.70;;
2866;SDS011;1441;48.886;8.728;2023-11-21T13:40:22;0.60;;;0.57;;
2866;SDS011;1441;48.886;8.728;2023-11-21T13:42:52;0.67;;;0.67;;
2866;SDS011;1441;48.886;8.728;2023-11-21T13:45:21;0.67;;;0.67;;
2866;SDS011;1441;48.886;8.728;2023-11-21T13:47:48;1.60;;;0.87;;
2866;SDS011;1441;48.886;8.728;2023-11-21T13:50:16;3.70;;;0.77;;
2866;SDS011;1441;48.886;8.728;2023-11-21T13:52:47;0.80;;;0.80;;
2866;SDS011;1441;48.886;8.728;2023-11-21T13:55:14;0.63;;;0.63;;
2866;SDS011;1441;48.886;8.728;2023-11-21T13:57:44;1.00;;;0.90;;
2866;SDS011;1441;48.886;8.728;2023-11-21T14:00:14;2.73;;;1.23;;
2866;SDS011;1441;48.886;8.728;2023-11-21T14:03:00;1.00;;;1.00;;
2866;SDS011;1441;48.886;8.728;2023-11-21T14:05:29;0.77;;;0.77;;
2866;SDS011;1441;48.886;8.728;2023-11-21T14:07:56;0.70;;;0.70;;
2866;SDS011;1441;48.886;8.728;2023-11-21T14:10:28;1.90;;;1.10;;
2866;SDS011;1441;48.886;8.728;2023-11-21T14:13:02;2.13;;;1.10;;
2866;SDS011;1441;48.886;8.728;2023-11-21T14:15:29;1.23;;;0.90;;
2866;SDS011;1441;48.886;8.728;2023-11-21T14:17:56;0.70;;;0.70;;
2866;SDS011;1441;48.886;8.728;2023-11-21T14:20:21;7.50;;;0.73;;
2866;SDS011;1441;48.886;8.728;2023-11-21T14:22:47;0.70;;;0.70;;
2866;SDS011;1441;48.886;8.728;2023-11-21T14:25:13;0.57;;;0.57;;
2866;SDS011;1441;48.886;8.728;2023-11-21T14:27:39;0.80;;;0.80;;
2866;SDS011;1441;48.886;8.728;2023-11-21T14:30:05;0.80;;;0.80;;
2866;SDS011;1441;48.886;8.728;2023-11-21T14:32:31;3.90;;;0.90;;
2866;SDS011;1441;48.886;8.728;2023-11-21T14:34:57;2.30;;;1.00;;
2866;SDS011;1441;48.886;8.728;2023-11-21T14:37:22;4.53;;;0.80;;
2866;SDS011;1441;48.886;8.728;2023-11-21T14:39:48;1.20;;;1.20;;
2866;SDS011;1441;48.886;8.728;2023-11-21T14:42:14;3.43;;;1.20;;
2866;SDS011;1441;48.886;8.728;2023-11-21T14:44:40;1.00;;;1.00;;
2866;SDS011;1441;48.886;8.728;2023-11-21T14:47:07;1.60;;;1.50;;
2866;SDS011;1441;48.886;8.728;2023-11-21T14:49:42;6.60;;;1.50;;
2866;SDS011;1441;48.886;8.728;2023-11-21T14:52:21;2.10;;;1.57;;
2866;SDS011;1441;48.886;8.728;2023-11-21T14:54:58;1.40;;;1.40;;
2866;SDS011;1441;48.886;8.728;2023-11-21T14:57:45;1.40;;;1.40;;
2866;SDS011;1441;48.886;8.728;2023-11-21T15:00:15;2.07;;;1.83;;
2866;SDS011;1441;48.886;8.728;2023-11-21T15:03:02;5.43;;;2.30;;
2866;SDS011;1441;48.886;8.728;2023-11-21T15:05:28;3.87;;;2.20;;
2866;SDS011;1441;48.886;8.728;2023-11-21T15:07:54;3.63;;;2.13;;
2866;SDS011;1441;48.886;8.728;2023-11-21T15:10:36;11.40;;;3.13;;
2866;SDS011;1441;48.886;8.728;2023-11-21T15:13:11;17.17;;;2.87;;
2866;SDS011;1441;48.886;8.728;2023-11-21T15:15:38;3.80;;;2.70;;
2866;SDS011;1441;48.886;8.728;2023-11-21T15:18:04;8.53;;;2.37;;
2866;SDS011;1441;48.886;8.728;2023-11-21T15:20:31;2.43;;;2.23;;
2866;SDS011;1441;48.886;8.728;2023-11-21T15:22:57;2.60;;;2.40;;
2866;SDS011;1441;48.886;8.728;2023-11-21T15:25:22;3.80;;;2.17;;
2866;SDS011;1441;48.886;8.728;2023-11-21T15:27:48;2.87;;;2.67;;
2866;SDS011;1441;48.886;8.728;2023-11-21T15:30:15;2.40;;;2.30;;
2866;SDS011;1441;48.886;8.728;2023-11-21T15:32:45;3.93;;;2.17;;